Time;durP1;ratioP1;P1;durP2;ratioP2;P2;SDS_P1;SDS_P2;PMS_P1;PMS_P2;Temp;Humidity;BMP_temperature;BMP_pressure;BME280_temperature;BME280_humidity;BME280_pressure;Samples;Min_cycle;Max_cycle;Signal;HPM_P1;HPM_P2
2022/01/28 00:00:50;;;;;;;2.58;1.20;;;17.10;54.60;;;;;;5035370;28;20179;-59
2022/01/28 00:03:17;;;;;;;3.08;1.25;;;17.10;54.60;;;;;;5035676;28;20189;-59
2022/01/28 00:05:42;;;;;;;3.55;1.15;;;17.00;54.60;;;;;;5035747;28;20211;-58
2022/01/28 00:08:08;;;;;;;2.13;0.95;;;17.00;54.60;;;;;;5034846;28;20172;-59
2022/01/28 00:10:34;;;;;;;1.83;1.05;;;17.00;55.20;;;;;;5035865;28;20534;-59
2022/01/28 00:13:14;;;;;;;2.38;1.00;;;17.00;54.60;;;;;;5035598;28;20253;-60
2022/01/28 00:18:48;;;;;;;3.30;1.23;;;16.90;54.60;;;;;;5035473;28;20167;-59
2022/01/28 00:38:01;;;;;;;1.60;0.93;;;16.80;54.50;;;;;;5035158;28;20233;-59
2022/01/28 00:40:27;;;;;;;5.00;1.30;;;16.80;54.60;;;;;;5035406;28;20176;-60
2022/01/28 00:42:52;;;;;;;4.28;1.70;;;16.80;54.50;;;;;;5034176;28;20176;-59
2022/01/28 00:45:18;;;;;;;1.70;1.00;;;16.80;54.50;;;;;;5034946;28;20221;-58
2022/01/28 00:47:46;;;;;;;2.65;1.35;;;16.80;54.50;;;;;;5035482;28;20179;-59
2022/01/28 00:50:12;;;;;;;4.20;1.30;;;16.80;54.50;;;;;;5034113;28;20187;-59
2022/01/28 00:52:38;;;;;;;2.50;1.00;;;16.80;54.50;;;;;;5034744;28;20223;-59
2022/01/28 00:55:06;;;;;;;1.40;1.10;;;16.80;54.50;;;;;;5034730;28;20191;-60
2022/01/28 00:57:38;;;;;;;2.72;1.23;;;16.80;54.50;;;;;;5033679;28;20576;-59
2022/01/28 01:00:05;;;;;;;2.67;1.33;;;16.70;54.50;;;;;;5034669;28;20172;-60
2022/01/28 01:02:31;;;;;;;1.60;1.23;;;16.70;54.40;;;;;;5035211;28;20179;-59
2022/01/28 01:04:56;;;;;;;2.30;1.00;;;16.70;54.40;;;;;;5033651;28;20216;-59
2022/01/28 01:07:22;;;;;;;2.33;1.13;;;16.70;54.40;;;;;;5034741;28;20561;-59
2022/01/28 01:09:49;;;;;;;2.25;1.30;;;16.70;54.40;;;;;;5034457;28;20183;-59
2022/01/28 01:12:18;;;;;;;3.33;1.38;;;16.70;54.40;;;;;;5033878;28;20172;-60
2022/01/28 01:14:44;;;;;;;1.48;1.20;;;16.70;54.40;;;;;;5034510;28;20263;-60
2022/01/28 01:19:43;;;;;;;1.25;0.93;;;16.70;54.40;;;;;;5034805;28;20187;-60
2022/01/28 01:22:12;;;;;;;2.90;1.25;;;16.70;54.40;;;;;;5033961;28;20192;-59
2022/01/28 01:24:48;;;;;;;2.30;1.02;;;16.70;54.40;;;;;;5033632;28;20207;-59
2022/01/28 01:27:14;;;;;;;5.78;1.25;;;16.60;54.30;;;;;;5034170;28;20210;-60
2022/01/28 01:29:43;;;;;;;1.88;1.02;;;16.60;54.40;;;;;;5034390;28;20203;-59
2022/01/28 01:32:13;;;;;;;3.17;1.40;;;16.60;54.30;;;;;;5033157;28;20639;-60
2022/01/28 01:34:39;;;;;;;1.95;1.30;;;16.60;54.40;;;;;;5034102;28;20176;-59
2022/01/28 01:37:04;;;;;;;4.03;1.58;;;16.60;54.40;;;;;;5033766;28;20184;-59
2022/01/28 01:39:34;;;;;;;2.40;1.30;;;16.60;54.40;;;;;;5033154;28;20198;-59
2022/01/28 01:42:08;;;;;;;4.75;1.60;;;16.60;54.40;;;;;;5033809;28;20527;-59
2022/01/28 01:52:43;;;;;;;4.28;1.30;;;16.60;54.40;;;;;;5032943;28;20239;-60
2022/01/28 01:55:08;;;;;;;4.60;1.40;;;16.60;54.30;;;;;;5033392;28;20639;-60
2022/01/28 01:57:34;;;;;;;2.30;1.33;;;16.50;54.30;;;;;;5033773;28;20207;-59
2022/01/28 02:00:00;;;;;;;2.45;1.20;;;16.60;54.30;;;;;;5032918;28;20183;-59
2022/01/28 02:02:25;;;;;;;3.90;1.58;;;16.50;54.30;;;;;;5033578;28;20179;-60
2022/01/28 02:04:50;;;;;;;3.25;1.30;;;16.50;54.30;;;;;;5033459;28;20602;-59
2022/01/28 02:07:16;;;;;;;4.07;1.40;;;16.50;54.30;;;;;;5032489;28;20172;-59
2022/01/28 02:09:42;;;;;;;1.73;1.20;;;16.50;54.30;;;;;;5033224;28;20207;-59
2022/01/28 02:12:08;;;;;;;2.03;1.30;;;16.50;54.30;;;;;;5033230;28;20574;-60
2022/01/28 02:14:34;;;;;;;3.72;1.30;;;16.50;54.30;;;;;;5032573;28;20677;-60
2022/01/28 02:17:00;;;;;;;1.98;0.98;;;16.50;54.30;;;;;;5033114;28;20179;-59
2022/01/28 02:19:26;;;;;;;2.47;1.25;;;16.50;54.30;;;;;;5033626;28;20180;-60
2022/01/28 02:21:53;;;;;;;1.55;0.90;;;16.50;54.30;;;;;;5032936;28;20583;-59
2022/01/28 02:24:21;;;;;;;3.50;1.23;;;16.40;54.30;;;;;;5033322;28;20223;-59
2022/01/28 02:26:46;;;;;;;3.40;1.35;;;16.50;54.30;;;;;;5033342;28;20222;-59
2022/01/28 02:29:15;;;;;;;2.88;1.38;;;16.40;54.20;;;;;;5032235;28;20742;-59
2022/01/28 02:31:41;;;;;;;2.42;1.40;;;16.40;54.20;;;;;;5033275;28;20207;-59
2022/01/28 02:34:10;;;;;;;1.33;0.95;;;16.40;54.30;;;;;;5033111;28;20180;-59
2022/01/28 02:36:35;;;;;;;2.08;1.10;;;16.40;54.20;;;;;;5032722;28;20585;-59
2022/01/28 02:39:02;;;;;;;2.65;1.40;;;16.40;54.30;;;;;;5032993;28;20247;-59
2022/01/28 02:41:33;;;;;;;4.05;1.33;;;16.40;54.20;;;;;;5032379;28;20183;-59
2022/01/28 02:44:09;;;;;;;2.85;1.20;;;16.40;54.30;;;;;;5032744;28;20199;-59
2022/01/28 02:46:38;;;;;;;1.90;1.02;;;16.40;54.20;;;;;;5033317;28;20263;-59
2022/01/28 02:49:07;;;;;;;2.08;1.20;;;16.40;54.20;;;;;;5031966;28;20172;-59
2022/01/28 02:51:43;;;;;;;2.40;1.40;;;16.40;54.20;;;;;;5032807;28;20599;-60
2022/01/28 02:54:14;;;;;;;2.08;1.23;;;16.30;54.20;;;;;;5047987;28;20202;-59
2022/01/28 02:56:47;;;;;;;2.50;1.23;;;16.30;54.20;;;;;;5032264;28;20199;-60
2022/01/28 02:59:12;;;;;;;4.25;1.48;;;16.30;54.20;;;;;;5032852;28;20180;-60
2022/01/28 03:01:38;;;;;;;2.78;1.15;;;16.30;54.20;;;;;;5032933;28;20203;-60
2022/01/28 03:04:08;;;;;;;3.40;1.33;;;16.30;54.20;;;;;;5031657;28;20171;-59
2022/01/28 03:06:34;;;;;;;4.15;1.38;;;16.30;54.20;;;;;;5032890;28;20176;-59
2022/01/28 03:09:07;;;;;;;3.40;1.35;;;16.30;54.20;;;;;;5032635;28;20168;-59
2022/01/28 03:16:59;;;;;;;2.60;1.30;;;16.30;54.20;;;;;;5032200;28;20287;-60
2022/01/28 03:19:28;;;;;;;2.08;1.13;;;16.30;54.20;;;;;;5033728;28;20590;-60
2022/01/28 03:21:55;;;;;;;2.53;1.13;;;16.30;54.20;;;;;;5036287;28;20187;-60
2022/01/28 03:24:25;;;;;;;2.65;1.20;;;16.30;54.20;;;;;;5036018;28;20207;-60
2022/01/28 03:26:54;;;;;;;3.38;1.30;;;16.20;54.20;;;;;;5036657;28;20226;-60
2022/01/28 03:29:19;;;;;;;2.35;1.30;;;16.30;54.20;;;;;;5036422;28;20706;-59
2022/01/28 03:31:45;;;;;;;2.35;1.15;;;16.30;54.20;;;;;;5035841;28;20272;-59
2022/01/28 03:34:10;;;;;;;3.03;1.40;;;16.20;54.20;;;;;;5036159;28;20306;-59
2022/01/28 03:36:36;;;;;;;1.92;1.13;;;16.20;54.20;;;;;;5036330;28;20657;-59
2022/01/28 03:39:02;;;;;;;7.53;1.50;;;16.20;54.20;;;;;;5035348;28;20184;-59
2022/01/28 03:41:28;;;;;;;2.20;1.00;;;16.20;54.20;;;;;;5036582;28;20262;-59
2022/01/28 03:43:58;;;;;;;3.47;1.08;;;16.20;54.20;;;;;;5035812;28;20755;-59
2022/01/28 03:46:27;;;;;;;3.10;1.38;;;16.20;54.20;;;;;;5035578;28;20192;-59
2022/01/28 03:48:53;;;;;;;2.85;1.30;;;16.20;54.20;;;;;;5036066;28;20176;-59
2022/01/28 03:51:18;;;;;;;2.13;1.15;;;16.20;54.20;;;;;;5036085;28;20305;-59
2022/01/28 03:53:44;;;;;;;2.70;1.40;;;16.20;54.20;;;;;;5035565;28;20212;-59
2022/01/28 03:56:10;;;;;;;3.70;1.30;;;16.20;54.50;;;;;;5035826;28;20210;-60
2022/01/28 03:58:36;;;;;;;2.47;0.82;;;16.20;54.20;;;;;;5035890;28;20176;-60
2022/01/28 04:01:04;;;;;;;1.95;1.20;;;16.20;54.20;;;;;;5035083;28;20172;-59
2022/01/28 04:11:34;;;;;;;1.70;1.00;;;16.10;54.20;;;;;;5035461;28;20237;-60
2022/01/28 04:14:15;;;;;;;1.80;1.08;;;16.10;54.20;;;;;;5034341;28;20183;-59
2022/01/28 04:19:25;;;;;;;2.30;1.30;;;16.10;54.10;;;;;;5035773;28;20239;-60
2022/01/28 04:21:51;;;;;;;3.13;1.30;;;16.10;54.10;;;;;;5034981;28;20256;-62
2022/01/28 04:24:16;;;;;;;2.47;1.40;;;16.10;54.20;;;;;;5035071;28;20662;-59
2022/01/28 04:26:45;;;;;;;2.85;1.13;;;16.10;54.20;;;;;;5035700;28;20706;-59
2022/01/28 04:29:11;;;;;;;3.63;1.38;;;16.10;54.20;;;;;;5034540;28;20172;-59
2022/01/28 04:31:43;;;;;;;3.00;1.33;;;16.10;54.20;;;;;;5034851;28;20176;-59
2022/01/28 04:34:09;;;;;;;2.30;1.05;;;16.00;54.10;;;;;;5034427;28;20187;-58
2022/01/28 04:36:40;;;;;;;2.25;0.93;;;16.00;54.10;;;;;;5035207;28;20183;-59
2022/01/28 04:39:20;;;;;;;3.30;1.65;;;16.00;54.10;;;;;;5035230;28;20233;-59
2022/01/28 04:44:28;;;;;;;2.35;1.08;;;16.00;54.40;;;;;;5035217;28;20214;-58
2022/01/28 04:47:07;;;;;;;2.70;1.25;;;16.00;54.10;;;;;;5034901;28;20184;-59
2022/01/28 04:49:50;;;;;;;2.88;1.00;;;16.00;54.10;;;;;;5034579;28;20183;-59
2022/01/28 05:08:06;;;;;;;2.22;1.15;;;15.90;54.10;;;;;;5034692;28;20172;-58
2022/01/28 05:16:24;;;;;;;2.90;1.33;;;15.90;54.10;;;;;;5034736;28;20171;-59
2022/01/28 05:24:49;;;;;;;2.05;1.08;;;15.90;54.10;;;;;;5033256;28;20219;-58
2022/01/28 05:27:10;;;;;;;3.20;1.23;;;15.90;54.10;;;;;;5033917;28;20191;-58
2022/01/28 05:29:36;;;;;;;3.03;1.13;;;15.90;54.10;;;;;;5034404;28;20168;-58
2022/01/28 05:32:02;;;;;;;2.10;1.05;;;15.90;54.10;;;;;;5033092;28;20271;-58
2022/01/28 05:34:28;;;;;;;2.72;1.10;;;15.90;54.20;;;;;;5034467;28;20180;-59
2022/01/28 05:36:54;;;;;;;4.30;1.23;;;15.90;54.10;;;;;;5033958;28;20656;-58
2022/01/28 05:39:20;;;;;;;2.40;1.30;;;15.90;54.10;;;;;;5033229;28;20539;-59
2022/01/28 05:41:45;;;;;;;2.55;1.70;;;15.90;54.10;;;;;;5033978;28;20176;-58
2022/01/28 05:44:11;;;;;;;2.60;1.23;;;15.80;54.10;;;;;;5031913;28;20195;-58
2022/01/28 05:46:36;;;;;;;1.67;1.00;;;15.80;54.10;;;;;;5034113;28;20171;-57
2022/01/28 05:49:02;;;;;;;2.53;1.17;;;15.80;54.10;;;;;;5033778;28;20172;-58
2022/01/28 05:51:27;;;;;;;3.05;1.55;;;15.80;54.10;;;;;;5033023;28;20232;-58
2022/01/28 05:53:53;;;;;;;1.15;0.93;;;15.80;54.10;;;;;;5033438;28;20579;-58
2022/01/28 05:56:19;;;;;;;2.80;1.30;;;15.80;54.00;;;;;;5034011;28;20643;-58
2022/01/28 05:58:45;;;;;;;1.88;1.35;;;15.80;54.10;;;;;;5033096;28;20187;-59
2022/01/28 06:01:10;;;;;;;1.67;0.95;;;15.80;54.10;;;;;;5033389;28;20645;-59
2022/01/28 06:03:36;;;;;;;2.03;1.25;;;15.80;54.10;;;;;;5033459;28;20639;-58
2022/01/28 06:06:01;;;;;;;2.30;1.20;;;15.80;54.10;;;;;;5032563;28;20310;-58
2022/01/28 06:08:27;;;;;;;2.75;1.30;;;15.80;54.20;;;;;;5033386;28;20176;-58
2022/01/28 06:10:52;;;;;;;2.75;0.98;;;15.80;54.00;;;;;;5033396;28;20176;-58
2022/01/28 06:13:18;;;;;;;3.70;1.10;;;15.80;54.00;;;;;;5032860;28;20194;-58
2022/01/28 06:15:43;;;;;;;2.55;1.35;;;15.90;54.00;;;;;;5033298;28;20222;-59
2022/01/28 06:18:12;;;;;;;2.17;1.10;;;15.80;53.80;;;;;;5032679;28;20184;-58
2022/01/28 06:20:37;;;;;;;2.13;0.93;;;15.90;53.80;;;;;;5032792;28;20183;-58
2022/01/28 06:23:03;;;;;;;2.17;1.10;;;15.80;53.80;;;;;;5032778;28;20259;-58
2022/01/28 06:25:28;;;;;;;2.53;1.25;;;15.90;53.80;;;;;;5033305;28;20207;-58
2022/01/28 06:27:54;;;;;;;2.55;0.90;;;15.80;53.80;;;;;;5032476;28;20180;-58
2022/01/28 06:30:20;;;;;;;3.28;1.20;;;15.80;53.80;;;;;;5033370;28;20229;-58
2022/01/28 06:32:47;;;;;;;2.45;0.90;;;15.80;53.90;;;;;;5033101;28;20635;-58
2022/01/28 06:35:12;;;;;;;1.92;1.23;;;15.80;53.90;;;;;;5032005;28;20266;-59
2022/01/28 06:37:39;;;;;;;2.45;1.10;;;15.80;53.80;;;;;;5032997;28;20262;-58
2022/01/28 06:40:06;;;;;;;1.75;1.15;;;15.80;53.90;;;;;;5032588;28;20187;-58
2022/01/28 06:42:31;;;;;;;4.22;1.45;;;15.80;53.90;;;;;;5032543;28;20172;-58
2022/01/28 06:44:57;;;;;;;1.08;0.90;;;15.80;54.00;;;;;;5032574;28;20562;-58
2022/01/28 06:47:22;;;;;;;3.15;1.58;;;15.80;54.00;;;;;;5032953;28;20578;-58
2022/01/28 06:49:48;;;;;;;1.20;0.82;;;15.80;54.00;;;;;;5032174;28;20563;-58
2022/01/28 06:52:13;;;;;;;2.22;1.20;;;15.70;54.00;;;;;;5032433;28;20310;-58
2022/01/28 06:54:39;;;;;;;2.35;1.10;;;15.80;54.00;;;;;;5032144;28;20179;-59
2022/01/28 06:57:05;;;;;;;1.88;1.23;;;15.80;54.00;;;;;;5032576;28;20229;-59
2022/01/28 06:59:30;;;;;;;3.17;1.30;;;15.80;53.90;;;;;;5032846;28;20548;-59
2022/01/28 07:01:56;;;;;;;2.88;1.00;;;15.80;53.90;;;;;;5031754;28;20661;-59
2022/01/28 07:04:21;;;;;;;2.25;1.20;;;15.80;53.80;;;;;;5032686;28;20207;-59
2022/01/28 07:06:47;;;;;;;2.92;1.00;;;15.80;53.80;;;;;;5032573;28;20185;-61
2022/01/28 07:09:12;;;;;;;1.88;1.13;;;15.80;54.20;;;;;;5031473;28;20214;-61
2022/01/28 07:11:38;;;;;;;2.72;1.17;;;15.90;54.00;;;;;;5032578;28;20183;-61
2022/01/28 07:14:03;;;;;;;2.55;1.00;;;16.00;54.10;;;;;;5032100;28;20279;-61
2022/01/28 07:16:30;;;;;;;3.25;1.58;;;16.10;54.10;;;;;;5032165;28;20642;-60
2022/01/28 07:18:55;;;;;;;2.28;1.20;;;16.20;54.10;;;;;;5032182;28;20549;-61
2022/01/28 07:21:21;;;;;;;2.35;1.08;;;16.30;54.00;;;;;;5032172;28;20172;-60
2022/01/28 07:23:46;;;;;;;2.53;1.20;;;16.50;53.80;;;;;;5031841;28;20175;-61
2022/01/28 07:26:12;;;;;;;2.20;1.20;;;16.70;53.60;;;;;;5032158;28;20231;-61
2022/01/28 07:28:39;;;;;;;2.83;1.10;;;16.90;53.50;;;;;;5032304;28;20187;-61
2022/01/28 07:31:05;;;;;;;2.55;0.90;;;17.00;53.20;;;;;;5031536;28;20540;-62
2022/01/28 07:33:30;;;;;;;2.72;1.17;;;17.10;53.20;;;;;;5033794;28;20646;-64
2022/01/28 07:35:59;;;;;;;5.65;1.27;;;17.20;53.00;;;;;;5051737;28;20317;-61
2022/01/28 07:38:25;;;;;;;2.80;1.25;;;17.30;53.30;;;;;;5051157;28;20613;-61
2022/01/28 07:40:50;;;;;;;2.60;1.23;;;17.50;53.40;;;;;;5051954;28;20175;-63
2022/01/28 07:43:16;;;;;;;3.47;1.27;;;17.60;53.10;;;;;;5051953;28;20178;-63
2022/01/28 07:45:41;;;;;;;4.53;1.20;;;17.90;52.60;;;;;;5051472;28;20210;-62
2022/01/28 07:48:09;;;;;;;4.22;1.20;;;18.00;52.30;;;;;;5051915;28;20213;-61
2022/01/28 07:50:35;;;;;;;3.05;1.40;;;18.10;52.20;;;;;;5052048;28;20295;-63
2022/01/28 07:53:01;;;;;;;2.70;1.20;;;18.10;52.40;;;;;;5050766;28;20337;-60
2022/01/28 07:55:26;;;;;;;4.47;1.42;;;18.10;52.30;;;;;;5052035;28;20213;-61
2022/01/28 07:57:52;;;;;;;1.65;1.20;;;18.20;52.20;;;;;;5051255;28;20175;-61
2022/01/28 08:00:17;;;;;;;4.95;1.40;;;18.10;52.10;;;;;;5051860;28;20171;-61
2022/01/28 08:02:43;;;;;;;3.03;1.35;;;18.10;52.20;;;;;;5051678;28;20178;-62
2022/01/28 08:05:09;;;;;;;2.63;1.15;;;18.10;52.30;;;;;;5050735;28;21043;-61
2022/01/28 08:07:35;;;;;;;2.72;1.30;;;18.10;52.20;;;;;;5054772;28;20273;-61
2022/01/28 08:10:00;;;;;;;3.05;1.20;;;18.10;52.20;;;;;;5055127;28;20266;-60
2022/01/28 08:12:26;;;;;;;4.25;1.13;;;18.10;52.20;;;;;;5054858;28;20630;-60
2022/01/28 08:14:55;;;;;;;4.00;1.30;;;18.20;52.20;;;;;;5055369;28;20175;-60
2022/01/28 08:17:20;;;;;;;3.42;1.20;;;18.20;52.10;;;;;;5055256;28;20167;-60
2022/01/28 08:19:46;;;;;;;2.63;1.10;;;18.30;52.00;;;;;;5054588;28;20186;-60
2022/01/28 08:22:11;;;;;;;4.15;1.40;;;18.20;51.90;;;;;;5055084;28;20167;-61
2022/01/28 08:24:37;;;;;;;4.72;1.17;;;18.20;52.10;;;;;;5055215;28;20608;-60
2022/01/28 08:27:02;;;;;;;4.07;1.25;;;18.30;52.10;;;;;;5054193;28;20283;-60
2022/01/28 08:29:28;;;;;;;3.17;1.40;;;18.30;52.10;;;;;;5055190;28;20715;-60
2022/01/28 08:31:53;;;;;;;3.70;1.30;;;18.30;52.10;;;;;;5054748;28;20225;-61
2022/01/28 08:34:19;;;;;;;2.53;1.20;;;18.30;52.10;;;;;;5054860;28;20203;-61
2022/01/28 08:36:47;;;;;;;3.45;1.10;;;18.50;51.90;;;;;;5055071;28;20175;-61
2022/01/28 08:39:14;;;;;;;4.03;1.50;;;18.40;51.90;;;;;;5054884;28;20183;-63
2022/01/28 08:41:42;;;;;;;2.95;1.30;;;18.50;51.80;;;;;;5054263;28;20183;-61
2022/01/28 08:44:07;;;;;;;1.85;1.42;;;18.50;51.80;;;;;;5054667;28;20181;-61
2022/01/28 08:46:33;;;;;;;2.85;1.10;;;18.40;51.80;;;;;;5054650;28;20183;-62
2022/01/28 08:48:58;;;;;;;2.55;1.05;;;18.50;51.90;;;;;;5053866;28;20182;-61
2022/01/28 08:51:24;;;;;;;1.90;1.27;;;18.50;51.80;;;;;;5054737;28;20686;-60
2022/01/28 08:53:49;;;;;;;2.53;1.10;;;18.50;51.80;;;;;;5054437;28;20179;-61
2022/01/28 08:56:15;;;;;;;3.70;1.90;;;18.50;51.70;;;;;;5053572;28;20175;-61
2022/01/28 08:58:40;;;;;;;2.55;1.15;;;18.60;51.60;;;;;;5054436;28;20202;-62
2022/01/28 09:01:06;;;;;;;3.63;1.50;;;18.60;51.60;;;;;;5053720;28;20175;-63
2022/01/28 09:03:33;;;;;;;3.40;1.50;;;18.60;51.70;;;;;;5054660;28;20206;-61
2022/01/28 09:05:58;;;;;;;4.13;1.80;;;18.60;51.50;;;;;;5054255;28;20211;-60
2022/01/28 09:08:24;;;;;;;3.20;1.85;;;18.60;51.50;;;;;;5053786;28;20270;-60
2022/01/28 09:11:18;;;;;;;1.98;1.30;;;18.70;51.50;;;;;;5054007;28;20187;-60
2022/01/28 09:13:44;;;;;;;3.20;1.40;;;18.70;51.50;;;;;;5054102;28;20182;-59
2022/01/28 09:16:09;;;;;;;3.40;1.20;;;18.70;51.50;;;;;;5053443;28;20176;-60
2022/01/28 09:18:35;;;;;;;2.80;1.35;;;18.70;51.50;;;;;;5053959;28;20175;-60
2022/01/28 09:21:00;;;;;;;3.42;1.50;;;18.70;51.70;;;;;;5053969;28;20541;-60
2022/01/28 09:23:26;;;;;;;3.10;1.20;;;18.60;51.70;;;;;;5053421;28;20221;-60
2022/01/28 09:25:51;;;;;;;4.35;1.50;;;18.50;51.80;;;;;;5053897;28;20238;-60
2022/01/28 09:28:17;;;;;;;3.13;1.70;;;18.50;52.00;;;;;;5053597;28;20178;-60
2022/01/28 09:30:42;;;;;;;2.83;1.35;;;18.50;52.10;;;;;;5053364;28;20256;-60
2022/01/28 09:33:08;;;;;;;4.00;1.67;;;18.40;52.10;;;;;;5053673;28;20226;-61
2022/01/28 09:35:34;;;;;;;3.47;1.73;;;18.50;52.30;;;;;;5054335;28;20752;-61
2022/01/28 09:38:00;;;;;;;2.22;1.40;;;18.40;52.20;;;;;;5052719;28;20630;-61
2022/01/28 09:40:25;;;;;;;3.53;1.58;;;18.40;52.20;;;;;;5053886;28;20175;-61
2022/01/28 09:42:52;;;;;;;2.55;1.17;;;18.40;52.40;;;;;;5053788;28;20248;-61
2022/01/28 09:45:21;;;;;;;4.68;1.50;;;18.30;52.40;;;;;;5052775;28;20708;-61
2022/01/28 09:47:46;;;;;;;4.47;1.60;;;18.30;52.70;;;;;;5053890;28;20258;-61
2022/01/28 09:50:13;;;;;;;3.03;1.52;;;18.20;52.80;;;;;;5053498;28;20713;-60
2022/01/28 09:52:38;;;;;;;1.98;1.23;;;18.20;53.00;;;;;;5052828;28;20263;-61
2022/01/28 09:55:04;;;;;;;3.05;1.38;;;18.10;53.10;;;;;;5053146;28;20665;-61
2022/01/28 09:57:31;;;;;;;3.40;1.83;;;18.10;53.20;;;;;;5052594;28;20178;-61
2022/01/28 09:59:57;;;;;;;3.97;1.60;;;18.10;53.30;;;;;;5053292;28;20189;-61
2022/01/28 10:03:03;;;;;;;2.05;1.23;;;18.10;53.30;;;;;;5053688;28;20167;-60
2022/01/28 10:05:29;;;;;;;1.55;1.13;;;18.10;53.20;;;;;;5052567;28;20226;-61
2022/01/28 10:08:25;;;;;;;2.33;1.27;;;18.10;53.20;;;;;;5052752;28;20673;-61
2022/01/28 10:11:03;;;;;;;3.13;1.52;;;18.10;53.20;;;;;;5052844;28;20680;-60
2022/01/28 10:13:44;;;;;;;1.77;1.13;;;18.00;53.30;;;;;;5052354;28;20741;-60
2022/01/28 10:16:14;;;;;;;3.95;1.50;;;18.00;53.40;;;;;;5052749;28;20171;-60
2022/01/28 10:18:51;;;;;;;5.13;1.20;;;18.00;53.50;;;;;;5052532;28;20254;-60
2022/01/28 10:21:19;;;;;;;3.90;1.48;;;18.00;54.20;;;;;;5052873;28;20196;-60
2022/01/28 10:24:11;;;;;;;3.53;1.20;;;18.00;53.60;;;;;;5053040;28;20190;-60
2022/01/28 10:26:43;;;;;;;1.90;1.23;;;18.00;53.60;;;;;;5052431;28;20241;-60
2022/01/28 10:29:14;;;;;;;2.30;1.23;;;18.10;53.50;;;;;;5052168;28;20205;-60
2022/01/28 10:31:50;;;;;;;3.13;1.20;;;18.00;53.50;;;;;;5052984;28;20290;-61
2022/01/28 10:34:36;;;;;;;3.58;1.20;;;18.00;53.60;;;;;;5051918;28;20717;-60
2022/01/28 10:37:18;;;;;;;2.85;1.50;;;18.00;53.60;;;;;;5052519;28;20642;-62
2022/01/28 10:39:47;;;;;;;2.58;1.30;;;17.90;53.60;;;;;;5051885;28;20665;-61
2022/01/28 10:42:15;;;;;;;2.15;1.10;;;17.80;53.80;;;;;;5052468;28;20190;-62
2022/01/28 10:45:12;;;;;;;1.88;0.98;;;17.90;53.80;;;;;;5052805;28;20746;-62
2022/01/28 10:48:07;;;;;;;2.22;1.20;;;17.80;53.80;;;;;;5052001;28;20642;-62
2022/01/28 10:50:41;;;;;;;1.92;1.10;;;17.90;53.90;;;;;;5047851;28;20233;-62
2022/01/28 10:53:17;;;;;;;3.58;1.50;;;17.90;53.80;;;;;;5052094;28;20293;-62
2022/01/28 10:55:48;;;;;;;2.83;1.10;;;17.90;53.70;;;;;;5051843;28;20197;-62
2022/01/28 10:58:16;;;;;;;2.42;1.27;;;17.90;53.70;;;;;;5052327;28;20178;-62
2022/01/28 11:00:59;;;;;;;2.97;1.55;;;17.90;53.70;;;;;;5051591;28;20171;-62
2022/01/28 11:03:27;;;;;;;2.40;1.02;;;17.80;53.70;;;;;;5052641;28;20221;-63
2022/01/28 11:05:57;;;;;;;1.58;1.08;;;17.80;53.80;;;;;;5052212;28;20534;-62
2022/01/28 11:08:23;;;;;;;3.90;1.42;;;17.80;53.90;;;;;;5051997;28;20250;-62
2022/01/28 11:10:49;;;;;;;4.00;1.58;;;17.80;53.90;;;;;;5051743;28;20194;-62
2022/01/28 11:13:14;;;;;;;2.90;1.30;;;17.80;54.00;;;;;;5051413;28;20167;-61
2022/01/28 11:15:40;;;;;;;1.58;1.20;;;17.80;53.90;;;;;;5051571;28;20170;-63
2022/01/28 11:18:07;;;;;;;3.75;1.50;;;17.80;53.80;;;;;;5052126;28;20221;-61
2022/01/28 11:20:43;;;;;;;2.92;1.10;;;17.90;53.70;;;;;;5051185;28;20226;-61
2022/01/28 11:23:49;;;;;;;2.75;1.15;;;17.90;53.50;;;;;;5049974;28;20178;-61
2022/01/28 11:26:28;;;;;;;2.53;1.10;;;18.00;53.40;;;;;;5052181;28;20214;-61
2022/01/28 11:29:02;;;;;;;2.28;1.00;;;18.00;53.50;;;;;;5050301;28;20209;-62
2022/01/28 11:31:54;;;;;;;3.58;1.30;;;18.00;53.40;;;;;;5052533;28;20186;-62
2022/01/28 11:34:23;;;;;;;2.38;1.27;;;18.00;53.40;;;;;;5052052;28;20287;-61
2022/01/28 11:36:56;;;;;;;2.17;1.20;;;17.90;54.20;;;;;;5051389;28;20179;-62
2022/01/28 11:39:33;;;;;;;2.45;1.10;;;17.90;53.60;;;;;;5052253;28;20182;-62
2022/01/28 11:42:13;;;;;;;2.58;1.20;;;17.90;53.60;;;;;;5055374;28;20574;-62
2022/01/28 11:44:54;;;;;;;2.42;1.20;;;18.00;53.40;;;;;;5055408;28;20657;-62
2022/01/28 11:47:30;;;;;;;2.28;1.23;;;18.10;53.30;;;;;;5056108;28;20182;-62
2022/01/28 11:50:14;;;;;;;2.58;1.20;;;18.10;53.20;;;;;;5054848;28;20178;-62
2022/01/28 11:52:48;;;;;;;1.73;0.90;;;18.20;53.20;;;;;;5055843;28;20698;-61
2022/01/28 11:55:14;;;;;;;3.42;1.13;;;18.20;53.20;;;;;;5055742;28;20182;-61
2022/01/28 11:57:54;;;;;;;2.90;1.25;;;18.20;53.20;;;;;;5055049;28;20175;-61
2022/01/28 12:00:24;;;;;;;3.13;1.35;;;18.20;53.20;;;;;;5054474;28;20237;-61
2022/01/28 12:02:51;;;;;;;3.25;1.23;;;18.20;53.20;;;;;;5055720;28;20238;-62
2022/01/28 12:05:38;;;;;;;2.35;1.35;;;18.20;53.20;;;;;;5054654;28;20245;-62
2022/01/28 12:08:04;;;;;;;2.17;1.20;;;18.20;53.20;;;;;;5054200;28;20186;-64
2022/01/28 12:10:32;;;;;;;2.58;1.35;;;18.30;53.30;;;;;;5054417;28;20182;-64
2022/01/28 12:13:00;;;;;;;4.50;1.60;;;18.30;53.40;;;;;;5053257;28;20580;-64
2022/01/28 12:15:30;;;;;;;2.78;1.45;;;18.20;53.40;;;;;;5055666;28;20191;-64
2022/01/28 12:18:11;;;;;;;2.38;1.23;;;18.20;53.50;;;;;;5055353;28;20167;-61
2022/01/28 12:20:38;;;;;;;3.22;1.67;;;18.10;53.60;;;;;;5055535;28;20210;-62
2022/01/28 12:23:09;;;;;;;4.22;1.63;;;18.00;53.80;;;;;;5054929;28;20186;-62
2022/01/28 12:25:35;;;;;;;3.30;1.55;;;18.00;54.00;;;;;;5054373;28;20709;-62
2022/01/28 12:28:20;;;;;;;4.68;1.83;;;17.90;54.10;;;;;;5055015;28;20199;-61
2022/01/28 12:30:47;;;;;;;3.00;1.52;;;17.90;54.10;;;;;;5055402;28;20211;-62
2022/01/28 12:33:13;;;;;;;6.85;1.42;;;17.90;54.20;;;;;;5054144;28;20649;-63
2022/01/28 12:35:39;;;;;;;5.28;1.58;;;17.90;54.10;;;;;;5054938;28;20634;-63
2022/01/28 12:38:05;;;;;;;3.95;1.58;;;18.00;54.20;;;;;;5054432;28;20179;-63
2022/01/28 12:40:36;;;;;;;4.43;1.42;;;18.00;54.20;;;;;;5054208;28;20630;-62
2022/01/28 12:43:03;;;;;;;15.70;1.60;;;18.00;54.10;;;;;;5054931;28;20233;-62
2022/01/28 12:45:31;;;;;;;3.80;1.30;;;18.10;54.00;;;;;;5055226;28;20222;-63
2022/01/28 12:47:57;;;;;;;3.38;1.70;;;18.20;54.10;;;;;;5053978;28;20516;-61
2022/01/28 12:50:23;;;;;;;2.70;1.08;;;18.10;54.00;;;;;;5054664;28;20703;-61
2022/01/28 12:52:48;;;;;;;5.03;1.17;;;18.10;54.10;;;;;;5053899;28;20274;-61
2022/01/28 12:55:14;;;;;;;4.68;1.58;;;18.00;54.10;;;;;;5053840;28;20179;-61
2022/01/28 12:57:43;;;;;;;4.50;1.80;;;18.00;54.20;;;;;;5054934;28;20519;-62
2022/01/28 13:00:09;;;;;;;2.00;1.20;;;18.10;54.20;;;;;;5054293;28;20236;-62
2022/01/28 13:02:36;;;;;;;2.22;1.55;;;18.10;54.30;;;;;;5053975;28;20206;-62
2022/01/28 13:10:22;;;;;;;5.68;1.73;;;18.10;54.30;;;;;;5054624;28;20182;-60
2022/01/28 13:12:48;;;;;;;2.63;1.35;;;18.00;54.40;;;;;;5054421;28;20350;-61
2022/01/28 13:15:14;;;;;;;3.65;1.70;;;18.10;54.30;;;;;;5053203;28;20194;-61
2022/01/28 13:17:41;;;;;;;2.58;1.20;;;18.00;54.30;;;;;;5054320;28;20175;-61
2022/01/28 13:20:10;;;;;;;3.53;1.30;;;18.00;54.40;;;;;;5052659;28;20179;-61
2022/01/28 13:22:36;;;;;;;3.85;1.83;;;17.90;54.50;;;;;;5053719;28;20186;-62
2022/01/28 13:25:05;;;;;;;4.07;1.42;;;17.90;54.40;;;;;;5052787;28;20211;-62
2022/01/28 13:27:40;;;;;;;3.50;1.38;;;17.90;54.30;;;;;;5052773;28;20175;-61
2022/01/28 13:30:13;;;;;;;3.85;1.52;;;17.90;54.40;;;;;;5052990;28;20183;-61
2022/01/28 13:32:41;;;;;;;3.97;1.67;;;17.90;54.40;;;;;;5054358;28;20198;-62
2022/01/28 13:35:17;;;;;;;3.72;1.65;;;17.90;54.50;;;;;;5053924;28;20190;-62
2022/01/28 13:38:05;;;;;;;3.47;1.95;;;18.00;54.40;;;;;;5053242;28;20225;-62
2022/01/28 13:40:33;;;;;;;3.00;1.33;;;18.00;54.40;;;;;;5062326;28;20163;-61
2022/01/28 13:43:25;;;;;;;2.67;1.27;;;18.00;54.40;;;;;;5060592;28;20189;-62
2022/01/28 13:45:58;;;;;;;3.40;1.38;;;18.00;54.40;;;;;;5072621;28;20696;-62
2022/01/28 13:48:33;;;;;;;3.80;1.55;;;18.00;54.50;;;;;;5056504;28;20175;-61
2022/01/28 13:51:16;;;;;;;4.10;1.65;;;17.90;54.50;;;;;;5052291;28;20312;-60
2022/01/28 13:54:15;;;;;;;5.00;1.40;;;17.90;54.40;;;;;;5053785;28;20179;-61
2022/01/28 13:56:35;;;;;;;4.82;1.48;;;17.90;54.20;;;;;;5067127;28;20689;-61
2022/01/28 13:59:01;;;;;;;3.40;1.60;;;17.90;54.20;;;;;;5073421;28;20182;-61
2022/01/28 14:01:27;;;;;;;5.82;1.85;;;17.90;54.10;;;;;;5059637;28;20190;-61
2022/01/28 14:04:00;;;;;;;5.80;2.05;;;17.90;53.90;;;;;;5051556;28;20175;-61
2022/01/28 14:06:30;;;;;;;5.70;1.90;;;18.00;53.80;;;;;;5052790;28;20608;-61
2022/01/28 14:09:10;;;;;;;2.78;1.73;;;18.00;53.60;;;;;;5053410;28;20163;-60
2022/01/28 14:11:48;;;;;;;2.75;1.30;;;18.00;53.50;;;;;;5052350;28;20206;-60
2022/01/28 14:14:34;;;;;;;3.83;1.52;;;18.00;53.30;;;;;;5053094;28;20175;-61
2022/01/28 14:17:05;;;;;;;4.38;1.83;;;18.00;53.10;;;;;;5053025;28;20178;-60
2022/01/28 14:19:35;;;;;;;5.00;2.08;;;18.00;52.80;;;;;;5052654;28;20206;-60